Time;durP1;ratioP1;P1;durP2;ratioP2;P2;SDS_P1;SDS_P2;PMS_P1;PMS_P2;Temp;Humidity;BMP_temperature;BMP_pressure;BME280_temperature;BME280_humidity;BME280_pressure;Samples;Min_cycle;Max_cycle;Signal;HPM_P1;HPM_P2
2022/04/10 00:00:27;;;;;;;8.23;1.97;;;4.60;99.90;;;;;;4999771;28;20465;-56
2022/04/10 00:02:53;;;;;;;4.00;2.10;;;4.70;99.90;;;;;;5000078;28;20556;-57
2022/04/10 00:05:20;;;;;;;2.17;1.33;;;4.60;99.90;;;;;;5000047;28;20465;-55
2022/04/10 00:07:47;;;;;;;2.67;1.63;;;4.60;99.90;;;;;;4999733;28;20457;-56
2022/04/10 00:10:15;;;;;;;2.23;1.43;;;4.60;99.90;;;;;;5000092;28;20543;-56
2022/04/10 00:12:41;;;;;;;3.17;1.73;;;4.60;99.90;;;;;;4999773;28;20457;-56
2022/04/10 00:15:09;;;;;;;6.40;2.43;;;4.60;99.90;;;;;;5000383;28;20490;-57
2022/04/10 00:17:36;;;;;;;4.77;1.70;;;4.60;99.90;;;;;;5001188;28;20508;-54
2022/04/10 00:20:02;;;;;;;4.73;2.03;;;4.60;99.90;;;;;;4984183;28;20948;-53
2022/04/10 00:22:29;;;;;;;3.63;2.07;;;4.50;99.90;;;;;;5000451;28;20450;-56
2022/04/10 00:24:56;;;;;;;6.30;2.17;;;4.50;99.90;;;;;;4999609;28;20477;-57
2022/04/10 00:27:24;;;;;;;3.00;2.13;;;4.50;99.90;;;;;;4999998;28;20439;-55
2022/04/10 00:29:50;;;;;;;4.23;2.17;;;4.50;99.90;;;;;;4999343;28;20488;-56
2022/04/10 00:32:17;;;;;;;5.60;3.03;;;4.50;99.90;;;;;;4999037;28;20450;-57
2022/04/10 00:34:44;;;;;;;4.73;1.83;;;4.50;99.90;;;;;;4999092;28;20540;-57
2022/04/10 00:37:10;;;;;;;7.33;2.60;;;4.50;99.90;;;;;;4999245;28;20418;-57
2022/04/10 00:39:37;;;;;;;3.20;2.00;;;4.50;99.90;;;;;;4998032;28;20446;-55
2022/04/10 00:42:05;;;;;;;5.83;2.17;;;4.50;99.90;;;;;;4998649;28;20937;-56
2022/04/10 00:44:34;;;;;;;3.20;2.37;;;4.60;99.90;;;;;;4999145;28;20450;-55
2022/04/10 00:47:01;;;;;;;2.50;1.80;;;4.60;99.90;;;;;;4999551;28;20450;-55
2022/04/10 00:49:27;;;;;;;3.17;2.10;;;4.60;99.90;;;;;;4999309;28;20458;-55
2022/04/10 00:51:56;;;;;;;2.90;2.20;;;4.50;99.90;;;;;;4998623;28;20449;-57
2022/04/10 00:54:25;;;;;;;3.93;2.30;;;4.50;99.90;;;;;;4999327;28;20819;-55
2022/04/10 00:56:53;;;;;;;3.67;2.30;;;4.50;99.90;;;;;;4999205;28;20545;-58
2022/04/10 00:59:20;;;;;;;2.20;2.00;;;4.50;99.90;;;;;;4998662;28;20528;-57
2022/04/10 01:01:49;;;;;;;4.63;2.80;;;4.50;99.90;;;;;;4998930;28;20832;-57
2022/04/10 01:04:16;;;;;;;4.43;2.10;;;4.50;99.90;;;;;;4998909;28;20505;-55
2022/04/10 01:06:43;;;;;;;2.63;2.40;;;4.50;99.90;;;;;;4998726;28;20462;-55
2022/04/10 01:09:10;;;;;;;2.97;2.37;;;4.50;99.90;;;;;;4999132;28;20446;-57
2022/04/10 01:11:37;;;;;;;6.77;2.50;;;4.50;99.90;;;;;;5000300;28;20446;-59
2022/04/10 01:14:05;;;;;;;4.00;2.50;;;4.40;99.90;;;;;;5000738;28;20545;-57
2022/04/10 01:16:32;;;;;;;4.47;2.70;;;4.40;99.90;;;;;;4998950;28;20509;-55
2022/04/10 01:19:02;;;;;;;4.80;2.83;;;4.30;99.90;;;;;;4998158;28;20430;-58
2022/04/10 01:21:31;;;;;;;3.10;2.40;;;4.30;99.90;;;;;;4998633;28;20564;-55
2022/04/10 01:24:00;;;;;;;4.50;2.70;;;4.30;99.90;;;;;;4998839;28;20517;-57
2022/04/10 01:26:28;;;;;;;4.70;2.40;;;4.20;99.90;;;;;;4999109;28;20536;-57
2022/04/10 01:28:59;;;;;;;4.60;2.47;;;4.20;99.90;;;;;;4998757;28;20488;-56
2022/04/10 01:31:26;;;;;;;5.23;2.07;;;4.20;99.90;;;;;;4998202;28;20956;-55
2022/04/10 01:33:56;;;;;;;5.30;2.60;;;4.20;99.90;;;;;;4998001;28;20454;-58
2022/04/10 01:36:24;;;;;;;5.73;2.90;;;4.20;99.90;;;;;;4998153;28;20505;-55
2022/04/10 01:38:53;;;;;;;6.60;4.93;;;4.20;99.90;;;;;;4998518;28;20445;-57
2022/04/10 01:41:21;;;;;;;7.27;2.73;;;4.20;99.90;;;;;;4998689;28;20473;-55
2022/04/10 01:43:49;;;;;;;3.73;2.63;;;4.30;99.90;;;;;;4998446;28;20453;-58
2022/04/10 01:46:17;;;;;;;6.00;3.23;;;4.30;99.90;;;;;;4998754;28;20478;-56
2022/04/10 01:48:43;;;;;;;3.50;2.80;;;4.20;99.90;;;;;;4998686;28;20456;-57
2022/04/10 01:51:10;;;;;;;3.57;2.13;;;4.20;99.90;;;;;;4998574;28;20528;-57
2022/04/10 01:53:37;;;;;;;4.40;2.63;;;4.10;99.90;;;;;;4999037;28;20460;-54
2022/04/10 01:56:05;;;;;;;3.70;2.97;;;4.10;99.90;;;;;;4998715;28;20563;-57
2022/04/10 01:58:36;;;;;;;3.80;2.10;;;4.10;99.90;;;;;;4998617;28;20520;-54
2022/04/10 02:01:03;;;;;;;3.40;2.40;;;4.00;99.90;;;;;;4999049;28;20828;-57
2022/04/10 02:03:30;;;;;;;8.80;3.50;;;4.00;99.90;;;;;;4999501;28;20442;-56
2022/04/10 02:05:56;;;;;;;7.50;2.30;;;4.00;99.90;;;;;;4999790;28;20536;-58
2022/04/10 02:08:23;;;;;;;2.80;2.37;;;3.90;99.90;;;;;;5001162;28;20553;-60
2022/04/10 02:10:50;;;;;;;5.17;3.10;;;3.90;99.90;;;;;;4999241;28;20470;-58
2022/04/10 02:13:16;;;;;;;3.67;2.57;;;3.90;99.90;;;;;;4998662;28;20843;-58
2022/04/10 02:15:44;;;;;;;3.90;2.13;;;3.90;99.90;;;;;;4997796;28;20497;-58
2022/04/10 02:18:11;;;;;;;2.50;2.30;;;3.90;99.90;;;;;;4997929;28;20445;-55
2022/04/10 02:20:38;;;;;;;4.23;1.90;;;3.90;99.90;;;;;;4998200;28;20516;-58
2022/04/10 02:23:05;;;;;;;11.23;3.00;;;3.90;99.90;;;;;;4998250;28;20426;-56
2022/04/10 02:25:31;;;;;;;5.00;2.43;;;3.80;99.90;;;;;;4999072;28;20481;-56
2022/04/10 02:27:58;;;;;;;4.40;2.90;;;3.80;99.90;;;;;;4998363;28;20496;-54
2022/04/10 02:30:25;;;;;;;5.53;2.80;;;3.80;99.90;;;;;;4998467;28;20972;-62
2022/04/10 02:32:53;;;;;;;2.67;2.07;;;3.70;99.90;;;;;;4998306;28;20458;-57
2022/04/10 02:35:21;;;;;;;4.80;2.40;;;3.70;99.90;;;;;;4998649;28;20820;-54
2022/04/10 02:37:49;;;;;;;8.27;3.60;;;3.70;99.90;;;;;;4998520;28;20461;-57
2022/04/10 02:40:16;;;;;;;3.13;2.33;;;3.70;99.90;;;;;;4998192;28;20454;-57
2022/04/10 02:42:43;;;;;;;3.97;2.73;;;3.70;99.90;;;;;;4998423;28;20461;-57
2022/04/10 02:45:11;;;;;;;4.07;2.70;;;3.70;99.90;;;;;;4998642;28;20477;-57
2022/04/10 02:47:38;;;;;;;4.73;3.70;;;3.70;99.90;;;;;;4998012;28;20462;-63
2022/04/10 02:50:06;;;;;;;11.53;3.07;;;3.70;99.90;;;;;;4998026;28;20446;-57
2022/04/10 02:52:33;;;;;;;5.20;2.93;;;3.80;99.90;;;;;;4998424;28;20446;-57
2022/04/10 02:55:00;;;;;;;6.90;3.27;;;3.80;99.90;;;;;;4997857;28;20477;-54
2022/04/10 02:57:26;;;;;;;10.90;2.80;;;3.80;99.90;;;;;;4998007;28;20469;-56
2022/04/10 02:59:56;;;;;;;4.43;2.70;;;3.80;99.90;;;;;;4998686;28;20453;-57
2022/04/10 03:02:23;;;;;;;4.10;2.57;;;3.80;99.90;;;;;;5000687;28;20470;-54
2022/04/10 03:04:49;;;;;;;11.20;4.77;;;3.80;99.90;;;;;;5004414;28;20488;-57
2022/04/10 03:07:17;;;;;;;2.10;1.57;;;3.70;99.90;;;;;;5002539;28;20470;-60
2022/04/10 03:09:44;;;;;;;4.87;2.30;;;3.70;99.90;;;;;;5002106;28;20450;-58
2022/04/10 03:12:13;;;;;;;10.77;3.60;;;3.80;99.90;;;;;;5001791;28;20552;-57
2022/04/10 03:14:39;;;;;;;3.53;2.90;;;3.80;99.90;;;;;;5002267;28;20450;-54
2022/04/10 03:17:06;;;;;;;5.60;2.40;;;3.70;99.90;;;;;;5001443;28;20497;-57
2022/04/10 03:19:33;;;;;;;11.70;2.73;;;3.80;99.90;;;;;;5002104;28;20449;-57
2022/04/10 03:22:00;;;;;;;3.10;2.80;;;3.80;99.90;;;;;;5002460;28;20500;-54
2022/04/10 03:24:28;;;;;;;7.30;2.37;;;3.80;99.90;;;;;;5001779;28;20454;-57
2022/04/10 03:26:54;;;;;;;4.27;2.50;;;3.80;99.90;;;;;;5001974;28;20462;-57
2022/04/10 03:29:21;;;;;;;10.07;2.03;;;3.80;99.90;;;;;;5001872;28;20519;-56
2022/04/10 03:31:48;;;;;;;5.27;2.70;;;3.80;99.90;;;;;;5001690;28;20528;-58
2022/04/10 03:34:17;;;;;;;4.63;2.70;;;3.80;99.90;;;;;;5001895;28;20453;-56
2022/04/10 03:36:44;;;;;;;13.80;3.07;;;3.80;99.90;;;;;;5001883;28;20485;-54
2022/04/10 03:39:11;;;;;;;4.27;2.20;;;3.80;99.90;;;;;;5001654;28;20473;-55
2022/04/10 03:41:39;;;;;;;7.30;2.30;;;3.80;99.90;;;;;;5002495;28;20458;-57
2022/04/10 03:44:07;;;;;;;9.20;2.50;;;3.80;99.90;;;;;;5001963;28;20469;-60
2022/04/10 03:46:33;;;;;;;5.00;1.50;;;3.90;99.90;;;;;;5002355;28;20473;-56
2022/04/10 03:49:00;;;;;;;14.10;5.27;;;3.90;99.90;;;;;;5003056;28;20442;-54
2022/04/10 03:51:27;;;;;;;8.90;2.13;;;3.90;99.90;;;;;;5002377;28;20531;-58
2022/04/10 03:53:53;;;;;;;4.50;3.53;;;3.80;99.90;;;;;;5001943;28;20464;-56
2022/04/10 03:56:20;;;;;;;5.30;2.03;;;3.80;99.90;;;;;;5002135;28;20477;-54
2022/04/10 03:58:48;;;;;;;3.43;2.20;;;3.80;99.90;;;;;;5004490;28;20450;-58
2022/04/10 04:01:15;;;;;;;3.93;2.17;;;3.90;99.90;;;;;;5002157;28;20929;-57
2022/04/10 04:03:41;;;;;;;4.80;3.20;;;3.90;99.90;;;;;;5001244;28;20959;-57
2022/04/10 04:06:08;;;;;;;4.40;2.23;;;4.00;99.90;;;;;;5001285;28;20458;-62
2022/04/10 04:08:40;;;;;;;3.20;1.83;;;3.90;99.90;;;;;;5000926;28;20450;-57
2022/04/10 04:11:06;;;;;;;6.27;3.30;;;3.90;99.90;;;;;;5001459;28;20530;-60
2022/04/10 04:13:33;;;;;;;1.73;1.30;;;3.90;99.90;;;;;;5001421;28;20446;-58
2022/04/10 04:16:01;;;;;;;6.00;2.20;;;3.90;99.90;;;;;;5001363;28;20478;-53
2022/04/10 04:18:28;;;;;;;12.43;2.40;;;3.90;99.90;;;;;;5001393;28;20454;-57
2022/04/10 04:20:55;;;;;;;4.13;1.87;;;3.80;99.90;;;;;;5001042;28;20817;-57
2022/04/10 04:23:22;;;;;;;5.00;2.70;;;3.80;99.90;;;;;;5000799;28;20452;-58
2022/04/10 04:25:48;;;;;;;8.70;2.50;;;3.80;99.90;;;;;;5000999;28;20512;-55
2022/04/10 04:28:15;;;;;;;5.67;2.60;;;3.80;99.90;;;;;;5000887;28;20454;-57
2022/04/10 04:30:41;;;;;;;7.33;2.60;;;3.90;99.90;;;;;;5000762;28;20445;-58
2022/04/10 04:33:10;;;;;;;5.70;2.40;;;3.90;99.90;;;;;;5000643;28;20493;-55
2022/04/10 04:35:36;;;;;;;11.00;3.00;;;3.90;99.90;;;;;;5000276;28;20473;-58
2022/04/10 04:38:03;;;;;;;6.63;2.40;;;3.90;99.90;;;;;;5000127;28;20458;-59
2022/04/10 04:40:29;;;;;;;5.07;2.90;;;3.90;99.90;;;;;;5000279;28;20450;-56
2022/04/10 04:42:56;;;;;;;6.33;3.73;;;3.90;99.90;;;;;;5000604;28;21011;-57
2022/04/10 04:45:23;;;;;;;7.83;2.53;;;3.90;99.90;;;;;;5000822;28;20590;-55
2022/04/10 04:47:49;;;;;;;7.37;2.33;;;3.90;99.90;;;;;;5000612;28;20505;-56
2022/04/10 04:50:17;;;;;;;6.93;2.60;;;3.90;99.90;;;;;;5000090;28;20484;-58
2022/04/10 04:52:44;;;;;;;6.73;2.60;;;4.00;99.90;;;;;;5002720;28;20473;-53
2022/04/10 04:55:11;;;;;;;9.67;2.20;;;4.00;99.90;;;;;;5002420;28;20454;-57
2022/04/10 04:57:37;;;;;;;2.37;1.73;;;4.00;99.90;;;;;;5000041;28;20497;-58
2022/04/10 05:00:05;;;;;;;2.40;1.57;;;4.10;99.90;;;;;;4999612;28;20445;-56
2022/04/10 05:02:32;;;;;;;12.37;2.70;;;4.00;99.90;;;;;;4999263;28;20478;-55
2022/04/10 05:04:58;;;;;;;3.80;1.70;;;4.00;99.90;;;;;;4999334;28;20834;-55
2022/04/10 05:07:26;;;;;;;6.23;2.30;;;4.10;99.90;;;;;;4999709;28;20869;-58
2022/04/10 05:09:53;;;;;;;8.47;2.30;;;4.10;99.90;;;;;;5000183;28;20818;-58
2022/04/10 05:12:19;;;;;;;7.00;2.33;;;4.00;99.90;;;;;;5000055;28;20952;-54
2022/04/10 05:14:46;;;;;;;5.67;2.50;;;4.00;99.90;;;;;;4999705;28;20462;-54
2022/04/10 05:17:13;;;;;;;2.00;1.53;;;4.00;99.90;;;;;;4999039;28;20556;-58
2022/04/10 05:19:40;;;;;;;5.50;2.50;;;4.00;99.90;;;;;;4999963;28;20957;-54
2022/04/10 05:22:06;;;;;;;5.63;2.10;;;4.10;99.90;;;;;;4999838;28;20477;-56
2022/04/10 05:24:34;;;;;;;6.53;2.20;;;4.10;99.90;;;;;;4999227;28;20446;-57
2022/04/10 05:27:01;;;;;;;3.57;1.60;;;4.20;99.90;;;;;;4999391;28;20456;-57
2022/04/10 05:29:28;;;;;;;3.93;2.50;;;4.20;99.90;;;;;;4999901;28;20445;-58
2022/04/10 05:31:54;;;;;;;5.70;2.00;;;4.20;99.90;;;;;;4999408;28;20450;-60
2022/04/10 05:34:21;;;;;;;10.10;2.87;;;4.20;99.90;;;;;;4999615;28;20544;-58
2022/04/10 05:36:48;;;;;;;5.70;2.53;;;4.20;99.90;;;;;;4999341;28;20804;-58
2022/04/10 05:39:14;;;;;;;4.30;2.67;;;4.20;99.90;;;;;;4999700;28;20450;-58
2022/04/10 05:41:42;;;;;;;3.57;2.40;;;4.30;99.90;;;;;;4999369;28;20454;-58
2022/04/10 05:44:09;;;;;;;10.03;3.33;;;4.30;99.90;;;;;;4998878;28;20466;-58
2022/04/10 05:46:38;;;;;;;4.07;2.57;;;4.40;99.90;;;;;;4998700;28;20452;-56
2022/04/10 05:49:05;;;;;;;6.10;2.00;;;4.40;99.90;;;;;;5000688;28;20485;-58
2022/04/10 05:51:32;;;;;;;2.80;1.00;;;4.40;99.90;;;;;;5001801;28;20462;-57
2022/04/10 05:53:58;;;;;;;11.90;2.53;;;4.40;99.90;;;;;;5000141;28;20967;-58
2022/04/10 05:56:25;;;;;;;1.87;1.67;;;4.30;99.90;;;;;;4999470;28;20486;-58
2022/04/10 05:58:53;;;;;;;5.37;2.40;;;4.30;99.90;;;;;;4998948;28;20536;-56
2022/04/10 06:01:20;;;;;;;7.30;2.07;;;4.40;99.90;;;;;;4998912;28;20450;-57
2022/04/10 06:03:46;;;;;;;5.00;2.10;;;4.40;99.90;;;;;;4998579;28;20505;-56
2022/04/10 06:06:13;;;;;;;8.53;2.27;;;4.50;99.90;;;;;;4998644;28;20871;-58
2022/04/10 06:08:40;;;;;;;1.67;1.53;;;4.50;99.90;;;;;;4998496;28;20481;-59
2022/04/10 06:11:06;;;;;;;2.57;1.13;;;4.50;99.90;;;;;;4998398;28;20454;-58
2022/04/10 06:13:34;;;;;;;5.80;2.40;;;4.50;99.90;;;;;;4998590;28;20482;-57
2022/04/10 06:16:02;;;;;;;3.83;2.53;;;4.50;99.90;;;;;;4999167;28;20508;-57
2022/04/10 06:18:28;;;;;;;11.17;3.50;;;4.50;99.90;;;;;;4998403;28;20478;-57
2022/04/10 06:20:55;;;;;;;5.10;1.70;;;4.50;99.90;;;;;;4998391;28;20485;-57
2022/04/10 06:23:23;;;;;;;4.10;2.30;;;4.50;99.90;;;;;;4998281;28;20477;-58
2022/04/10 06:25:50;;;;;;;4.70;2.17;;;4.70;99.90;;;;;;4998125;28;20465;-57
2022/04/10 06:28:16;;;;;;;6.43;2.77;;;4.70;99.90;;;;;;4998188;28;20474;-58
2022/04/10 06:30:45;;;;;;;9.83;2.43;;;4.70;99.90;;;;;;4998711;28;20442;-58
2022/04/10 06:33:13;;;;;;;7.60;2.40;;;4.70;99.90;;;;;;4998287;28;20569;-57
2022/04/10 06:35:40;;;;;;;11.03;3.33;;;4.70;99.90;;;;;;4998092;28;20924;-57
2022/04/10 06:38:06;;;;;;;2.90;2.60;;;4.70;99.90;;;;;;4996989;28;20489;-51
2022/04/10 06:40:33;;;;;;;5.17;2.80;;;4.70;99.90;;;;;;4997589;28;20445;-55
2022/04/10 06:43:00;;;;;;;10.43;1.80;;;4.70;99.90;;;;;;4998529;28;20473;-54
2022/04/10 06:45:27;;;;;;;3.17;2.03;;;4.70;99.90;;;;;;5000531;28;20496;-59
2022/04/10 06:47:53;;;;;;;12.83;2.30;;;4.80;99.90;;;;;;4998193;28;20473;-59
2022/04/10 06:50:22;;;;;;;4.27;2.37;;;4.80;99.90;;;;;;4997201;28;20462;-58
2022/04/10 06:52:49;;;;;;;3.37;2.23;;;5.00;99.90;;;;;;4997083;28;20470;-58
2022/04/10 06:55:16;;;;;;;6.73;2.60;;;5.10;99.90;;;;;;4996973;28;20441;-58
2022/04/10 06:57:43;;;;;;;6.53;2.30;;;5.20;99.90;;;;;;4996733;28;20493;-55
2022/04/10 07:00:11;;;;;;;14.60;1.80;;;5.30;99.90;;;;;;4997694;28;20438;-56
2022/04/10 07:02:37;;;;;;;10.40;2.67;;;5.30;99.90;;;;;;4997809;28;20889;-57
2022/04/10 07:05:05;;;;;;;2.50;1.50;;;5.40;99.90;;;;;;4996974;28;20430;-58
2022/04/10 07:07:33;;;;;;;4.93;2.47;;;5.40;99.90;;;;;;4996637;28;20484;-57
2022/04/10 07:10:00;;;;;;;5.33;1.87;;;5.50;99.90;;;;;;4997251;28;20437;-59
2022/04/10 07:12:26;;;;;;;12.53;1.87;;;5.50;99.90;;;;;;4996759;28;20481;-57
2022/04/10 07:14:53;;;;;;;4.73;2.60;;;5.50;99.90;;;;;;4997184;28;20461;-58
2022/04/10 07:17:20;;;;;;;4.00;2.77;;;5.50;99.90;;;;;;4997588;28;20485;-58
2022/04/10 07:19:47;;;;;;;10.23;2.00;;;5.50;99.90;;;;;;4997025;28;20954;-57
2022/04/10 07:24:59;;;;;;;10.83;2.20;;;5.60;99.90;;;;;;4996537;28;20426;-57
2022/04/10 07:27:26;;;;;;;8.80;2.37;;;5.60;99.90;;;;;;4996517;28;20446;-57
2022/04/10 07:29:53;;;;;;;6.53;2.53;;;5.70;99.90;;;;;;4996869;28;20540;-55
2022/04/10 07:32:19;;;;;;;5.13;2.00;;;5.60;99.90;;;;;;4996218;28;20466;-56
2022/04/10 07:34:46;;;;;;;5.07;1.20;;;5.60;99.90;;;;;;4997042;28;20426;-55
2022/04/10 07:37:13;;;;;;;6.53;2.10;;;5.60;99.90;;;;;;4997039;28;20564;-56
2022/04/10 07:39:40;;;;;;;12.63;2.40;;;5.80;99.90;;;;;;4996892;28;20449;-58
2022/04/10 07:42:09;;;;;;;6.70;1.57;;;5.80;99.90;;;;;;4996397;28;20512;-54
2022/04/10 07:44:36;;;;;;;7.47;2.40;;;5.80;99.90;;;;;;4996833;28;20456;-59
2022/04/10 07:49:47;;;;;;;6.33;2.20;;;5.60;99.90;;;;;;5000381;28;20508;-57
2022/04/10 07:52:15;;;;;;;6.13;1.97;;;5.50;99.90;;;;;;5001641;28;20508;-57
2022/04/10 07:54:41;;;;;;;3.57;2.20;;;5.50;99.90;;;;;;5000445;28;20536;-57
2022/04/10 07:57:10;;;;;;;2.10;1.50;;;5.60;99.90;;;;;;5000405;28;20481;-52
2022/04/10 07:59:36;;;;;;;5.70;2.30;;;5.70;99.90;;;;;;4999771;28;20481;-58
2022/04/10 08:02:03;;;;;;;5.90;1.67;;;5.70;99.90;;;;;;4999966;28;20520;-58
2022/04/10 08:04:30;;;;;;;5.53;2.70;;;5.80;99.90;;;;;;5000033;28;20465;-56
2022/04/10 08:06:57;;;;;;;5.13;2.10;;;5.80;99.90;;;;;;4999459;28;20458;-55
2022/04/10 08:09:23;;;;;;;12.00;2.80;;;5.90;99.90;;;;;;4999750;28;20532;-55
2022/04/10 08:11:51;;;;;;;3.23;1.97;;;5.80;99.90;;;;;;4999223;28;20430;-58
2022/04/10 08:14:19;;;;;;;3.87;3.53;;;5.90;99.90;;;;;;4999270;28;20473;-54
2022/04/10 08:16:46;;;;;;;10.03;2.23;;;5.80;99.90;;;;;;4999193;28;20481;-53
2022/04/10 08:19:13;;;;;;;6.47;2.10;;;5.90;99.90;;;;;;4999570;28;20473;-61
2022/04/10 08:21:39;;;;;;;13.70;2.67;;;5.90;99.90;;;;;;5000967;28;20458;-56
2022/04/10 08:24:08;;;;;;;4.37;1.40;;;5.90;99.90;;;;;;5000095;28;20766;-55
2022/04/10 08:26:34;;;;;;;4.70;2.10;;;6.10;99.90;;;;;;4998975;28;20454;-57
2022/04/10 08:29:01;;;;;;;9.77;3.50;;;6.20;99.90;;;;;;4998788;28;20536;-57
2022/04/10 08:31:29;;;;;;;3.87;2.20;;;6.40;99.90;;;;;;4998196;28;20519;-57
2022/04/10 08:33:56;;;;;;;4.37;2.00;;;6.70;99.90;;;;;;4997911;28;20485;-56
2022/04/10 08:36:23;;;;;;;2.80;1.90;;;7.00;99.90;;;;;;4997703;28;20476;-57
2022/04/10 08:38:49;;;;;;;6.93;2.30;;;7.40;99.90;;;;;;4997820;28;20536;-55
2022/04/10 08:41:18;;;;;;;8.73;2.40;;;7.30;99.90;;;;;;4997579;28;20762;-55
2022/04/10 08:43:45;;;;;;;4.93;2.50;;;7.70;99.90;;;;;;4997521;28;20473;-56
2022/04/10 08:46:14;;;;;;;5.87;2.87;;;7.80;99.90;;;;;;4997768;28;20438;-56
2022/04/10 08:48:44;;;;;;;3.90;1.50;;;7.90;99.90;;;;;;4997676;28;20851;-55
2022/04/10 08:51:11;;;;;;;6.97;2.07;;;8.00;99.90;;;;;;4997582;28;20450;-52
2022/04/10 08:53:38;;;;;;;8.87;2.23;;;8.00;99.90;;;;;;4997448;28;20840;-56
2022/04/10 08:56:06;;;;;;;8.13;1.97;;;8.50;99.90;;;;;;4997178;28;20761;-56
2022/04/10 08:58:33;;;;;;;4.10;2.13;;;8.80;99.90;;;;;;4997005;28;20599;-56
2022/04/10 09:00:59;;;;;;;7.63;2.10;;;8.90;99.90;;;;;;4996079;28;20881;-55
2022/04/10 09:03:26;;;;;;;2.50;1.83;;;8.60;99.90;;;;;;4997072;28;20454;-52
2022/04/10 09:06:05;;;;;;;4.10;1.60;;;8.40;99.90;;;;;;4997312;28;20442;-56
2022/04/10 09:08:32;;;;;;;9.50;2.77;;;8.20;99.90;;;;;;4997043;28;20445;-55
2022/04/10 09:11:01;;;;;;;13.43;2.60;;;8.00;99.90;;;;;;4997309;28;20441;-56
2022/04/10 09:13:30;;;;;;;5.70;2.10;;;7.90;99.90;;;;;;4997433;28;20466;-56
2022/04/10 09:16:13;;;;;;;10.33;2.03;;;7.70;99.90;;;;;;4998383;28;20430;-50
2022/04/10 09:18:50;;;;;;;9.27;1.67;;;7.40;99.90;;;;;;4998243;28;20465;-52
2022/04/10 09:21:20;;;;;;;6.60;2.50;;;7.10;99.90;;;;;;4997543;28;20457;-56
2022/04/10 09:23:54;;;;;;;9.17;2.40;;;7.10;99.90;;;;;;4997178;28;20496;-56
2022/04/10 09:26:21;;;;;;;8.70;2.40;;;7.30;99.90;;;;;;4997294;28;20508;-55
2022/04/10 09:28:49;;;;;;;6.40;3.30;;;7.40;99.90;;;;;;4997129;28;20446;-57
2022/04/10 09:31:26;;;;;;;14.10;2.70;;;7.60;99.90;;;;;;4996951;28;20513;-57
2022/04/10 09:33:53;;;;;;;3.67;1.83;;;8.00;99.90;;;;;;4996645;28;20485;-56
2022/04/10 09:36:39;;;;;;;6.30;2.13;;;8.00;99.90;;;;;;4997032;28;20434;-54
2022/04/10 09:39:11;;;;;;;7.83;2.40;;;8.30;99.90;;;;;;4996746;28;20599;-53
2022/04/10 09:41:39;;;;;;;5.17;2.00;;;8.50;99.90;;;;;;4996492;28;20442;-53
2022/04/10 09:44:16;;;;;;;6.23;1.73;;;8.70;99.90;;;;;;4996298;28;20473;-55
2022/04/10 09:46:44;;;;;;;5.13;2.20;;;8.60;99.90;;;;;;4996580;28;20780;-58
2022/04/10 09:49:18;;;;;;;7.33;2.27;;;8.10;99.90;;;;;;4996665;28;20816;-51
2022/04/10 09:52:15;;;;;;;6.07;2.23;;;7.50;99.90;;;;;;4997348;28;20449;-54
2022/04/10 09:54:42;;;;;;;3.47;1.43;;;6.60;99.90;;;;;;4997063;28;20484;-54
2022/04/10 09:57:13;;;;;;;8.10;2.67;;;6.30;99.90;;;;;;4997171;28;20492;-57
2022/04/10 09:59:42;;;;;;;11.13;3.07;;;6.40;99.90;;;;;;4996580;28;20474;-55
2022/04/10 10:02:10;;;;;;;3.87;1.67;;;7.40;99.90;;;;;;4996160;28;20967;-59
2022/04/10 10:04:38;;;;;;;10.23;2.33;;;8.50;99.90;;;;;;4996074;28;20474;-52
2022/04/10 10:07:09;;;;;;;8.20;3.20;;;8.70;99.90;;;;;;4996290;28;20450;-58
2022/04/10 10:09:36;;;;;;;6.53;2.23;;;8.70;99.90;;;;;;4996110;28;20474;-51
2022/04/10 10:12:04;;;;;;;4.13;1.90;;;9.40;99.90;;;;;;4996789;28;20458;-54
2022/04/10 10:14:33;;;;;;;11.17;2.97;;;10.50;99.90;;;;;;4996044;28;20474;-58
2022/04/10 10:17:01;;;;;;;7.93;2.60;;;11.10;99.90;;;;;;4995371;28;20434;-55
2022/04/10 10:19:34;;;;;;;4.70;1.67;;;12.00;99.90;;;;;;4995405;28;20477;-57
2022/04/10 10:22:01;;;;;;;6.90;2.10;;;12.70;99.90;;;;;;4995435;28;20473;-56
2022/04/10 10:24:34;;;;;;;9.00;1.90;;;12.60;99.90;;;;;;4995350;28;20470;-55
2022/04/10 10:27:23;;;;;;;6.00;2.17;;;11.90;99.90;;;;;;4995229;28;20430;-52
2022/04/10 10:30:03;;;;;;;8.50;2.13;;;11.00;99.90;;;;;;4995471;28;20518;-55
2022/04/10 10:32:41;;;;;;;11.47;2.40;;;10.50;99.90;;;;;;4995194;28;20464;-55
2022/04/10 10:35:10;;;;;;;3.37;1.60;;;10.30;99.90;;;;;;4995078;28;20561;-51
2022/04/10 10:37:50;;;;;;;3.67;1.83;;;10.40;99.90;;;;;;4995244;28;20513;-56
2022/04/10 10:40:19;;;;;;;4.60;1.53;;;10.10;99.90;;;;;;4995468;28;20469;-54
2022/04/10 10:42:46;;;;;;;12.33;2.30;;;9.60;99.90;;;;;;4995481;28;20460;-57
2022/04/10 10:45:32;;;;;;;4.87;1.63;;;9.40;99.90;;;;;;5002197;28;20477;-54
2022/04/10 10:48:18;;;;;;;7.00;2.03;;;9.60;99.90;;;;;;5012549;28;20434;-51
2022/04/10 10:50:45;;;;;;;6.13;2.43;;;9.90;99.90;;;;;;5009805;28;20470;-52
2022/04/10 10:53:12;;;;;;;4.97;1.50;;;10.40;99.90;;;;;;5009361;28;20454;-53
2022/04/10 10:55:46;;;;;;;2.10;1.20;;;10.40;99.90;;;;;;5010143;28;20546;-52
2022/04/10 10:58:16;;;;;;;5.37;1.70;;;10.10;99.90;;;;;;5011050;28;20470;-55
2022/04/10 11:00:45;;;;;;;4.33;1.77;;;10.40;99.90;;;;;;5010817;28;20529;-54
2022/04/10 11:03:14;;;;;;;4.87;1.93;;;10.60;99.90;;;;;;5009218;28;20442;-53
2022/04/10 11:05:41;;;;;;;4.33;1.87;;;11.00;99.90;;;;;;5008404;28;20478;-51
2022/04/10 11:08:09;;;;;;;10.90;2.33;;;11.10;99.90;;;;;;5009638;28;20448;-53
2022/04/10 11:10:38;;;;;;;4.03;1.60;;;10.90;99.90;;;;;;5010664;28;20470;-54
2022/04/10 11:13:07;;;;;;;10.33;2.47;;;10.50;99.90;;;;;;5012229;28;20449;-52
2022/04/10 11:15:45;;;;;;;4.93;1.90;;;10.10;99.90;;;;;;5011826;28;20461;-57
2022/04/10 11:18:35;;;;;;;7.03;2.43;;;9.80;99.90;;;;;;5012941;28;20473;-53
2022/04/10 11:21:08;;;;;;;6.30;1.63;;;9.40;99.90;;;;;;5014386;28;20465;-53
2022/04/10 11:23:40;;;;;;;4.80;2.33;;;9.00;99.90;;;;;;5016180;28;20437;-57
2022/04/10 11:26:12;;;;;;;5.10;2.83;;;8.80;99.90;;;;;;5018461;28;20472;-52
2022/04/10 11:29:02;;;;;;;4.60;2.53;;;8.80;99.90;;;;;;5018275;28;20443;-54
2022/04/10 11:31:33;;;;;;;9.23;1.57;;;8.60;99.90;;;;;;5018038;28;20468;-51
2022/04/10 11:34:11;;;;;;;3.17;1.40;;;8.50;99.90;;;;;;5017079;28;20572;-55
2022/04/10 11:36:55;;;;;;;5.20;2.13;;;8.40;99.90;;;;;;5017409;28;20441;-50
2022/04/10 11:39:26;;;;;;;3.67;1.70;;;8.40;99.90;;;;;;5016717;28;20477;-56
2022/04/10 11:41:54;;;;;;;5.80;1.50;;;8.40;99.90;;;;;;5017934;28;20454;-54
2022/04/10 11:44:22;;;;;;;4.47;1.40;;;8.40;99.90;;;;;;5017060;28;20469;-55
2022/04/10 11:46:49;;;;;;;5.93;1.90;;;8.40;99.90;;;;;;5016851;28;20481;-54
2022/04/10 11:49:19;;;;;;;3.13;1.77;;;8.30;99.90;;;;;;5017442;28;20462;-50
2022/04/10 11:51:53;;;;;;;11.43;2.17;;;8.10;99.90;;;;;;5016700;28;20453;-55
2022/04/10 11:54:27;;;;;;;4.63;1.77;;;8.00;99.90;;;;;;5016719;28;20433;-50
2022/04/10 11:56:54;;;;;;;5.93;1.70;;;8.00;99.90;;;;;;5016818;28;20442;-54
2022/04/10 11:59:22;;;;;;;3.93;1.50;;;8.00;99.90;;;;;;5015607;28;20512;-53
2022/04/10 12:01:50;;;;;;;7.10;1.73;;;8.30;99.90;;;;;;5014814;28;20504;-55
2022/04/10 12:04:19;;;;;;;3.87;1.63;;;8.60;99.90;;;;;;5013916;28;20465;-55
2022/04/10 12:06:46;;;;;;;5.90;1.80;;;8.90;99.90;;;;;;5013858;28;20473;-56
2022/04/10 12:09:14;;;;;;;2.20;1.70;;;8.90;99.90;;;;;;5013867;28;20442;-55
2022/04/10 12:11:41;;;;;;;4.00;1.27;;;8.90;99.90;;;;;;5014387;28;20456;-55
2022/04/10 12:14:18;;;;;;;3.40;1.47;;;8.90;99.90;;;;;;5013874;28;20453;-55
2022/04/10 12:16:46;;;;;;;5.33;2.33;;;9.10;99.90;;;;;;5013417;28;20476;-56
2022/04/10 12:19:13;;;;;;;2.73;1.20;;;9.20;99.90;;;;;;5015678;28;20496;-58
2022/04/10 12:21:50;;;;;;;6.20;1.77;;;9.10;99.90;;;;;;5017911;28;20464;-57
2022/04/10 12:24:21;;;;;;;3.47;1.17;;;9.00;99.90;;;;;;5018727;28;20430;-60
2022/04/10 12:26:49;;;;;;;4.80;1.67;;;9.00;99.90;;;;;;5018699;28;20450;-55
2022/04/10 12:29:17;;;;;;;3.40;1.80;;;8.90;99.90;;;;;;5018968;28;20442;-58
2022/04/10 12:31:45;;;;;;;4.53;1.87;;;8.80;99.90;;;;;;5018879;28;20446;-58
2022/04/10 12:34:14;;;;;;;3.87;1.77;;;8.70;99.90;;;;;;5018215;28;20452;-61
2022/04/10 12:36:48;;;;;;;2.70;1.33;;;8.60;99.90;;;;;;5018942;28;20534;-58
2022/04/10 12:39:25;;;;;;;3.20;1.77;;;8.40;99.90;;;;;;5018710;28;20470;-57
2022/04/10 12:42:00;;;;;;;5.53;1.43;;;8.40;99.90;;;;;;5018597;28;20450;-56
2022/04/10 12:44:26;;;;;;;1.87;1.00;;;8.40;99.90;;;;;;5018587;28;20570;-57
2022/04/10 12:46:53;;;;;;;1.73;1.33;;;8.50;99.90;;;;;;5017929;28;20456;-57
2022/04/10 12:49:23;;;;;;;2.60;1.50;;;8.70;99.90;;;;;;5018081;28;20457;-57
2022/04/10 12:51:53;;;;;;;6.00;2.50;;;8.90;99.90;;;;;;5017886;28;20457;-60
2022/04/10 12:54:20;;;;;;;2.70;1.30;;;9.20;99.90;;;;;;5018161;28;20446;-59
2022/04/10 12:56:53;;;;;;;4.00;1.37;;;9.60;99.90;;;;;;5018202;28;20533;-52
2022/04/10 12:59:20;;;;;;;4.60;1.93;;;9.70;99.90;;;;;;5017969;28;20473;-57
2022/04/10 13:01:52;;;;;;;3.63;1.93;;;9.80;99.90;;;;;;5018146;28;20466;-57
2022/04/10 13:04:29;;;;;;;4.33;1.60;;;9.90;99.90;;;;;;5017588;28;20449;-57
2022/04/10 13:06:58;;;;;;;3.53;1.80;;;9.80;99.90;;;;;;5017620;28;20474;-59